Time;durP1;ratioP1;P1;durP2;ratioP2;P2;SDS_P1;SDS_P2;PMS_P1;PMS_P2;Temp;Humidity;BMP_temperature;BMP_pressure;BME280_temperature;BME280_humidity;BME280_pressure;Samples;Min_cycle;Max_cycle;Signal;HPM_P1;HPM_P2
2022/12/10 00:01:27;;;;;;;30.98;18.42;;;-0.90;99.90;;;;;;4989855;28;20046;-76
2022/12/10 00:03:54;;;;;;;37.20;19.75;;;-0.80;99.90;;;;;;4991271;28;20042;-76
2022/12/10 00:06:25;;;;;;;36.22;18.98;;;-0.90;99.90;;;;;;4978318;28;20074;-78
2022/12/10 00:08:54;;;;;;;38.95;19.20;;;-0.90;99.90;;;;;;4971954;28;20093;-78
2022/12/10 00:11:24;;;;;;;42.65;18.95;;;-0.90;99.90;;;;;;4970572;28;20089;-76
2022/12/10 00:13:53;;;;;;;52.78;19.92;;;-0.90;99.90;;;;;;4972062;28;20058;-77
2022/12/10 00:16:23;;;;;;;56.47;21.85;;;-0.90;99.90;;;;;;4986408;28;20046;-76
2022/12/10 00:18:52;;;;;;;47.97;20.17;;;-0.90;99.90;;;;;;4991890;28;20431;-77
2022/12/10 00:21:25;;;;;;;40.50;19.92;;;-0.80;99.90;;;;;;4973830;28;20054;-76
2022/12/10 00:23:53;;;;;;;41.00;19.35;;;-0.90;99.90;;;;;;4982254;28;20126;-76
2022/12/10 00:26:24;;;;;;;47.85;19.08;;;-0.90;99.90;;;;;;4971856;28;20089;-77
2022/12/10 00:28:53;;;;;;;48.67;20.45;;;-0.80;99.90;;;;;;4970523;28;20061;-76
2022/12/10 00:31:23;;;;;;;53.13;20.98;;;-0.80;99.90;;;;;;4971987;28;20042;-78
2022/12/10 00:33:54;;;;;;;41.88;19.88;;;-0.80;99.90;;;;;;4975012;28;20483;-77
2022/12/10 00:36:25;;;;;;;52.20;21.10;;;-0.80;99.90;;;;;;4974402;28;20080;-78
2022/12/10 00:38:54;;;;;;;42.47;19.90;;;-0.80;99.90;;;;;;4990212;28;20051;-78
2022/12/10 00:41:23;;;;;;;42.53;19.98;;;-0.80;99.90;;;;;;4973060;28;20150;-78
2022/12/10 00:43:51;;;;;;;41.05;20.55;;;-0.70;99.90;;;;;;4973829;28;20431;-78
2022/12/10 00:46:19;;;;;;;38.42;18.55;;;-0.60;99.90;;;;;;4973648;28;20126;-78
2022/12/10 00:48:48;;;;;;;39.03;20.15;;;-0.60;99.90;;;;;;4975414;28;20062;-78
2022/12/10 00:51:18;;;;;;;32.58;17.67;;;-0.60;99.90;;;;;;4980540;28;20056;-78
2022/12/10 00:53:47;;;;;;;31.90;18.13;;;-0.60;99.90;;;;;;4997455;28;20145;-78
2022/12/10 00:56:18;;;;;;;35.25;17.88;;;-0.50;99.90;;;;;;4989854;28;20142;-78
2022/12/10 00:58:49;;;;;;;28.42;16.50;;;-0.50;99.90;;;;;;4990041;28;20050;-79
2022/12/10 01:01:23;;;;;;;44.20;19.88;;;-0.50;99.90;;;;;;4990564;28;20454;-77
2022/12/10 01:03:57;;;;;;;29.33;16.25;;;-0.50;99.90;;;;;;4994400;28;20490;-77
2022/12/10 01:06:27;;;;;;;31.88;16.40;;;-0.50;99.90;;;;;;4994234;28;20430;-77
2022/12/10 01:08:58;;;;;;;34.53;16.20;;;-0.50;99.90;;;;;;4987911;28;20570;-79
2022/12/10 01:11:31;;;;;;;32.45;17.02;;;-0.50;99.90;;;;;;4957311;28;20063;-77
2022/12/10 01:14:00;;;;;;;25.23;13.43;;;-0.50;99.90;;;;;;4974759;28;20057;-78
2022/12/10 01:16:28;;;;;;;26.75;15.05;;;-0.50;99.90;;;;;;4973262;28;20065;-78
2022/12/10 01:18:57;;;;;;;27.20;14.95;;;-0.60;99.90;;;;;;4985622;28;20054;-78
2022/12/10 01:21:27;;;;;;;27.30;13.48;;;-0.60;99.90;;;;;;4993701;28;20057;-77
2022/12/10 01:23:55;;;;;;;26.17;14.80;;;-0.60;99.90;;;;;;4993902;28;20049;-76
2022/12/10 01:26:25;;;;;;;23.52;14.55;;;-0.60;99.90;;;;;;5007739;28;20046;-76
2022/12/10 01:28:54;;;;;;;25.65;13.35;;;-0.50;99.90;;;;;;4973457;28;20047;-77
2022/12/10 01:31:25;;;;;;;27.70;14.32;;;-0.50;99.90;;;;;;4973195;28;20097;-76
2022/12/10 01:33:53;;;;;;;25.55;14.48;;;-0.60;99.90;;;;;;4974361;28;20061;-77
2022/12/10 01:36:23;;;;;;;22.52;13.85;;;-0.60;99.90;;;;;;4973938;28;20161;-77
2022/12/10 01:38:52;;;;;;;25.60;14.68;;;-0.70;99.90;;;;;;4974265;28;20057;-78
2022/12/10 01:41:22;;;;;;;25.33;14.82;;;-0.70;99.90;;;;;;4956286;28;20061;-77
2022/12/10 01:43:57;;;;;;;24.45;13.77;;;-0.70;99.90;;;;;;4974188;28;20074;-78
2022/12/10 01:46:29;;;;;;;23.88;13.10;;;-0.80;99.90;;;;;;4971701;28;20054;-78
2022/12/10 01:49:00;;;;;;;22.80;13.55;;;-0.80;99.90;;;;;;4993602;28;20565;-77
2022/12/10 01:51:32;;;;;;;20.38;13.40;;;-0.80;99.90;;;;;;4991074;28;20065;-78
2022/12/10 01:54:00;;;;;;;20.95;12.88;;;-0.80;99.90;;;;;;4973632;28;20046;-76
2022/12/10 01:56:28;;;;;;;20.42;12.25;;;-0.80;99.90;;;;;;4974184;28;20551;-77
2022/12/10 01:58:57;;;;;;;20.63;13.48;;;-0.80;99.90;;;;;;4988679;28;20062;-78
2022/12/10 02:01:36;;;;;;;20.73;12.50;;;-0.80;99.90;;;;;;4973546;28;20072;-78
2022/12/10 02:04:20;;;;;;;20.83;11.85;;;-0.80;99.90;;;;;;4972279;28;20054;-78
2022/12/10 02:07:00;;;;;;;20.45;11.88;;;-0.80;99.90;;;;;;4972406;28;20496;-79
2022/12/10 02:09:38;;;;;;;17.98;11.15;;;-0.70;99.90;;;;;;4973502;28;20065;-76
2022/12/10 02:12:15;;;;;;;19.08;12.32;;;-0.60;99.90;;;;;;4971788;28;20046;-76
2022/12/10 02:14:53;;;;;;;18.00;11.57;;;-0.60;99.90;;;;;;4972186;28;20050;-77
2022/12/10 02:17:28;;;;;;;19.33;11.68;;;-0.60;99.90;;;;;;4955882;28;20423;-78
2022/12/10 02:20:09;;;;;;;18.63;11.77;;;-0.60;99.90;;;;;;4956117;28;20082;-78
2022/12/10 02:22:43;;;;;;;20.02;11.88;;;-0.60;99.90;;;;;;4973079;28;20059;-79
2022/12/10 02:25:14;;;;;;;19.88;11.77;;;-0.70;99.90;;;;;;4971917;28;20536;-78
2022/12/10 02:27:50;;;;;;;19.80;12.35;;;-0.80;99.90;;;;;;4972112;28;20054;-78
2022/12/10 02:30:20;;;;;;;22.60;11.93;;;-0.90;99.90;;;;;;4976405;28;20046;-77
2022/12/10 02:32:51;;;;;;;18.13;11.98;;;-1.00;99.90;;;;;;4992868;28;20057;-77
2022/12/10 02:35:24;;;;;;;18.25;11.75;;;-1.00;99.90;;;;;;4991056;28;20505;-78
2022/12/10 02:37:57;;;;;;;18.75;11.35;;;-1.00;99.90;;;;;;5007665;28;20054;-78
2022/12/10 02:40:31;;;;;;;17.02;10.98;;;-1.00;99.90;;;;;;5005953;28;20054;-78
2022/12/10 02:43:00;;;;;;;17.58;11.55;;;-1.10;99.90;;;;;;5007316;28;20132;-78
2022/12/10 02:45:31;;;;;;;18.08;11.45;;;-1.20;99.90;;;;;;4991011;28;20058;-78
2022/12/10 02:48:03;;;;;;;19.70;11.20;;;-1.20;99.90;;;;;;5004962;28;20434;-77
2022/12/10 02:50:37;;;;;;;18.67;11.40;;;-1.30;99.90;;;;;;4971505;28;20063;-78
2022/12/10 02:53:05;;;;;;;18.00;12.07;;;-1.30;99.90;;;;;;4957306;28;20047;-79
2022/12/10 02:55:54;;;;;;;18.95;12.23;;;-1.30;99.90;;;;;;4986941;28;20163;-77
2022/12/10 02:58:30;;;;;;;16.25;10.85;;;-1.20;99.90;;;;;;4987144;28;20058;-78
2022/12/10 03:01:08;;;;;;;19.60;11.23;;;-1.10;99.90;;;;;;4955162;28;20178;-77
2022/12/10 03:03:44;;;;;;;18.10;11.25;;;-1.00;99.90;;;;;;4987458;28;20058;-77
2022/12/10 03:06:19;;;;;;;16.85;11.05;;;-0.90;99.90;;;;;;4972630;28;20077;-77
2022/12/10 03:08:51;;;;;;;16.38;11.35;;;-0.70;99.90;;;;;;4992001;28;20141;-77
2022/12/10 03:11:22;;;;;;;17.47;11.20;;;-0.70;99.90;;;;;;4990630;28;20206;-78
2022/12/10 03:13:57;;;;;;;18.95;11.50;;;-0.70;99.90;;;;;;5006803;28;20173;-78
2022/12/10 03:16:30;;;;;;;22.88;11.90;;;-0.70;99.90;;;;;;4986172;28;20404;-78
2022/12/10 03:19:04;;;;;;;21.00;12.65;;;-0.60;99.90;;;;;;4972421;28;20148;-79
2022/12/10 03:21:33;;;;;;;19.63;12.15;;;-0.50;99.90;;;;;;4971277;28;20412;-78
2022/12/10 03:24:08;;;;;;;19.45;11.57;;;-0.50;99.90;;;;;;4986863;28;20050;-79
2022/12/10 03:26:37;;;;;;;20.38;12.52;;;-0.40;99.90;;;;;;4954828;28;20050;-78
2022/12/10 03:29:10;;;;;;;19.58;11.98;;;-0.30;99.90;;;;;;4972138;28;20081;-79
2022/12/10 03:31:41;;;;;;;21.65;11.77;;;-0.30;99.90;;;;;;4972178;28;20074;-79
2022/12/10 03:34:09;;;;;;;18.85;11.57;;;-0.30;99.90;;;;;;4986430;28;20093;-79
2022/12/10 03:36:39;;;;;;;21.88;12.35;;;-0.40;99.90;;;;;;5005052;28;20049;-79
2022/12/10 03:39:06;;;;;;;21.30;11.82;;;-0.50;99.90;;;;;;5010997;28;20049;-78
2022/12/10 03:41:34;;;;;;;20.48;12.73;;;-0.60;99.90;;;;;;5009725;28;20129;-79
2022/12/10 03:44:02;;;;;;;17.65;10.93;;;-0.70;99.90;;;;;;4994812;28;20058;-78
2022/12/10 03:46:31;;;;;;;18.42;10.48;;;-0.70;99.90;;;;;;4971976;28;20051;-77
2022/12/10 03:49:01;;;;;;;18.10;11.98;;;-0.70;99.90;;;;;;4970698;28;20117;-78
2022/12/10 03:51:29;;;;;;;18.45;11.80;;;-0.70;99.90;;;;;;4975953;28;20046;-78
2022/12/10 03:53:56;;;;;;;19.92;10.85;;;-0.70;99.90;;;;;;4970686;28;20051;-78
2022/12/10 03:56:24;;;;;;;17.48;11.40;;;-0.80;99.90;;;;;;4987051;28;20058;-78
2022/12/10 03:58:53;;;;;;;20.52;11.48;;;-0.80;99.90;;;;;;4991553;28;20050;-78
2022/12/10 04:01:20;;;;;;;16.60;11.07;;;-0.80;99.90;;;;;;4980407;28;20164;-78
2022/12/10 04:03:48;;;;;;;19.70;11.43;;;-0.80;99.90;;;;;;4970459;28;20082;-79
2022/12/10 04:06:19;;;;;;;20.63;11.35;;;-0.80;99.90;;;;;;4974874;28;20519;-78
2022/12/10 04:08:48;;;;;;;19.50;11.75;;;-0.80;99.90;;;;;;5030199;28;20046;-79
2022/12/10 04:11:16;;;;;;;20.67;11.48;;;-0.80;99.90;;;;;;4982314;28;20105;-78
2022/12/10 04:16:32;;;;;;;16.77;10.95;;;-0.80;99.90;;;;;;4967222;28;20152;-78
2022/12/10 04:19:03;;;;;;;19.83;11.85;;;-0.80;99.90;;;;;;4978518;28;20046;-77
2022/12/10 04:27:12;;;;;;;23.02;11.35;;;-0.90;99.90;;;;;;5009911;28;20061;-77
2022/12/10 04:29:40;;;;;;;22.40;12.90;;;-0.90;99.90;;;;;;4977612;28;20090;-76
2022/12/10 04:32:08;;;;;;;23.90;11.80;;;-0.90;99.90;;;;;;4977574;28;20053;-78
2022/12/10 04:34:35;;;;;;;17.38;11.32;;;-1.00;99.90;;;;;;4999595;28;20058;-78
2022/12/10 04:37:05;;;;;;;19.60;12.27;;;-1.00;99.90;;;;;;4978407;28;20069;-76
2022/12/10 04:39:33;;;;;;;19.30;11.48;;;-1.00;99.90;;;;;;4994722;28;20061;-76
2022/12/10 04:42:02;;;;;;;17.23;11.35;;;-1.10;99.90;;;;;;4990943;28;20127;-78
2022/12/10 04:44:30;;;;;;;20.85;12.18;;;-1.10;99.90;;;;;;4977354;28;20055;-76
2022/12/10 04:46:57;;;;;;;17.73;11.27;;;-1.10;99.90;;;;;;4982005;28;20047;-75
2022/12/10 04:49:26;;;;;;;24.05;12.65;;;-1.10;99.90;;;;;;4976018;28;20047;-69
2022/12/10 04:51:55;;;;;;;22.25;12.77;;;-1.20;99.90;;;;;;4998800;28;20053;-77
2022/12/10 04:54:25;;;;;;;21.42;13.57;;;-1.30;99.90;;;;;;4985426;28;20042;-76
2022/12/10 04:56:57;;;;;;;22.95;13.52;;;-1.30;99.90;;;;;;5008394;28;20050;-75
2022/12/10 04:59:26;;;;;;;22.20;12.93;;;-1.30;99.90;;;;;;5009283;28;20081;-76
2022/12/10 05:01:54;;;;;;;25.52;13.70;;;-1.30;99.90;;;;;;5007616;28;20434;-77
2022/12/10 05:04:21;;;;;;;26.65;15.30;;;-1.30;99.90;;;;;;5028707;28;20104;-74
2022/12/10 05:06:50;;;;;;;28.35;16.25;;;-1.20;99.90;;;;;;5013872;28;20406;-75
2022/12/10 05:09:18;;;;;;;29.63;16.13;;;-1.20;99.90;;;;;;4998401;28;20141;-75
2022/12/10 05:11:47;;;;;;;27.55;16.88;;;-1.30;99.90;;;;;;4992213;28;20046;-75
2022/12/10 05:14:20;;;;;;;25.25;14.75;;;-1.30;99.90;;;;;;4989089;28;20426;-79
2022/12/10 05:16:51;;;;;;;27.58;15.60;;;-1.30;99.90;;;;;;4992254;28;20427;-74
2022/12/10 05:19:21;;;;;;;29.40;17.70;;;-1.40;99.90;;;;;;4992520;28;20062;-72
2022/12/10 05:24:35;;;;;;;31.77;17.63;;;-1.50;99.90;;;;;;4985500;28;20054;-74
2022/12/10 05:27:07;;;;;;;30.23;16.85;;;-1.50;99.90;;;;;;4969802;28;20083;-75
2022/12/10 05:29:37;;;;;;;34.13;18.80;;;-1.50;99.90;;;;;;4977640;28;20458;-73
2022/12/10 05:32:05;;;;;;;32.78;17.13;;;-1.60;99.90;;;;;;4970641;28;20086;-73
2022/12/10 05:34:33;;;;;;;31.48;18.10;;;-1.60;99.90;;;;;;4972173;28;20460;-73
2022/12/10 05:37:00;;;;;;;30.80;17.25;;;-1.60;99.90;;;;;;4971750;28;20055;-73
2022/12/10 05:39:28;;;;;;;30.05;17.15;;;-1.60;99.90;;;;;;4971818;28;20059;-73
2022/12/10 05:41:56;;;;;;;34.10;16.42;;;-1.60;99.90;;;;;;4970106;28;20085;-73
2022/12/10 05:44:24;;;;;;;32.28;16.92;;;-1.60;99.90;;;;;;4971631;28;20383;-73
2022/12/10 05:46:53;;;;;;;28.38;15.68;;;-1.60;99.90;;;;;;4987136;28;20581;-72
2022/12/10 05:49:21;;;;;;;29.23;14.57;;;-1.60;99.90;;;;;;5003034;28;20174;-72
2022/12/10 05:51:48;;;;;;;29.17;15.32;;;-1.60;99.90;;;;;;4999007;28;20487;-72
2022/12/10 05:54:16;;;;;;;31.15;16.83;;;-1.60;99.90;;;;;;4993384;28;20054;-71
2022/12/10 05:56:43;;;;;;;27.83;15.75;;;-1.60;99.90;;;;;;4992184;28;20570;-72
2022/12/10 05:59:11;;;;;;;31.80;16.83;;;-1.70;99.90;;;;;;4986205;28;20186;-71
2022/12/10 06:01:42;;;;;;;27.15;15.93;;;-1.70;99.90;;;;;;4982926;28;20078;-71
2022/12/10 06:04:10;;;;;;;29.45;16.48;;;-1.70;99.90;;;;;;4972059;28;20054;-71
2022/12/10 06:06:40;;;;;;;29.35;16.05;;;-1.70;99.90;;;;;;4973657;28;20085;-71
2022/12/10 06:09:12;;;;;;;27.95;15.52;;;-1.70;99.90;;;;;;4973430;28;20050;-71
2022/12/10 06:11:40;;;;;;;28.65;15.55;;;-1.60;99.90;;;;;;4977972;28;20503;-71
2022/12/10 06:14:07;;;;;;;27.80;15.38;;;-1.60;99.90;;;;;;5027870;28;20081;-71
2022/12/10 06:16:35;;;;;;;29.52;16.83;;;-1.60;99.90;;;;;;5010892;28;20141;-71
2022/12/10 06:19:04;;;;;;;30.65;16.95;;;-1.60;99.90;;;;;;4997820;28;20087;-71
2022/12/10 06:21:31;;;;;;;27.00;16.38;;;-1.70;99.90;;;;;;4973109;28;20073;-72
2022/12/10 06:23:59;;;;;;;26.38;15.05;;;-1.70;99.90;;;;;;4987520;28;20053;-70
2022/12/10 06:26:27;;;;;;;28.05;16.10;;;-1.70;99.90;;;;;;4992662;28;20062;-69
2022/12/10 06:28:57;;;;;;;30.90;16.15;;;-1.80;99.90;;;;;;4995471;28;20065;-72
2022/12/10 06:31:25;;;;;;;27.98;15.20;;;-1.90;99.90;;;;;;4994456;28;20057;-70
2022/12/10 06:33:53;;;;;;;30.35;15.45;;;-1.90;99.90;;;;;;4996560;28;20069;-69
2022/12/10 06:36:23;;;;;;;38.33;16.63;;;-1.90;99.90;;;;;;5010536;28;20564;-70
2022/12/10 06:38:50;;;;;;;35.20;15.40;;;-1.90;99.90;;;;;;5012468;28;20053;-71
2022/12/10 06:41:20;;;;;;;38.70;16.02;;;-2.00;99.90;;;;;;5010468;28;20046;-70
2022/12/10 06:43:48;;;;;;;31.80;16.25;;;-2.10;99.90;;;;;;5011882;28;20059;-70
2022/12/10 06:46:18;;;;;;;28.52;15.40;;;-2.10;99.90;;;;;;5000403;28;20046;-71
2022/12/10 06:48:46;;;;;;;31.13;14.77;;;-2.10;99.90;;;;;;4990565;28;20046;-70
2022/12/10 06:51:17;;;;;;;35.17;15.60;;;-2.10;99.90;;;;;;4990063;28;20057;-71
2022/12/10 06:53:46;;;;;;;31.90;15.40;;;-2.10;99.90;;;;;;5005129;28;20078;-71
2022/12/10 06:56:17;;;;;;;34.45;14.55;;;-2.20;99.90;;;;;;4989645;28;20046;-71
2022/12/10 06:58:47;;;;;;;47.65;15.52;;;-2.20;99.90;;;;;;4975845;28;20459;-71
2022/12/10 07:01:19;;;;;;;25.48;13.75;;;-2.30;99.90;;;;;;4970106;28;20546;-70
2022/12/10 07:03:49;;;;;;;29.35;16.25;;;-2.30;99.90;;;;;;4971662;28;20078;-70
2022/12/10 07:06:16;;;;;;;69.38;14.43;;;-2.30;99.90;;;;;;4973713;28;20042;-70
2022/12/10 07:08:45;;;;;;;37.53;14.25;;;-2.30;99.90;;;;;;4995242;28;20054;-69
2022/12/10 07:11:15;;;;;;;50.22;14.50;;;-2.40;99.90;;;;;;4990535;28;20061;-71
2022/12/10 07:13:43;;;;;;;31.17;15.25;;;-2.30;99.90;;;;;;4991931;28;20057;-70
2022/12/10 07:16:15;;;;;;;95.57;16.80;;;-2.30;99.90;;;;;;4991811;28;20054;-70
2022/12/10 07:18:43;;;;;;;31.55;14.98;;;-2.30;99.90;;;;;;4991791;28;20125;-69
2022/12/10 07:21:18;;;;;;;44.15;14.75;;;-2.30;99.90;;;;;;4991462;28;20046;-69
2022/12/10 07:23:47;;;;;;;26.13;13.50;;;-2.30;99.90;;;;;;4990481;28;20428;-70
2022/12/10 07:26:15;;;;;;;27.42;14.18;;;-2.30;99.90;;;;;;4991608;28;20060;-70
2022/12/10 07:28:44;;;;;;;29.15;15.23;;;-2.20;99.90;;;;;;4991621;28;20541;-71
2022/12/10 07:31:11;;;;;;;32.22;17.48;;;-2.20;99.90;;;;;;4990653;28;20465;-77
2022/12/10 07:33:39;;;;;;;36.55;19.80;;;-2.10;99.90;;;;;;4991559;28;20062;-75
2022/12/10 07:36:08;;;;;;;32.90;17.63;;;-2.10;99.90;;;;;;4983923;28;20154;-75
2022/12/10 07:38:36;;;;;;;36.20;19.05;;;-2.10;99.90;;;;;;4997285;28;20510;-75
2022/12/10 07:41:09;;;;;;;37.95;20.60;;;-2.10;99.90;;;;;;4981074;28;20132;-75
2022/12/10 07:43:39;;;;;;;39.40;20.13;;;-2.10;99.90;;;;;;5003453;28;20097;-74
2022/12/10 07:46:07;;;;;;;34.67;20.33;;;-2.10;99.90;;;;;;4979576;28;20047;-73
2022/12/10 07:48:37;;;;;;;40.97;22.60;;;-2.20;99.90;;;;;;4991822;28;20046;-73
2022/12/10 07:51:05;;;;;;;33.20;19.35;;;-2.20;99.90;;;;;;4973518;28;20463;-74
2022/12/10 07:53:37;;;;;;;32.05;19.15;;;-2.20;99.90;;;;;;5007753;28;20092;-74
2022/12/10 07:56:07;;;;;;;30.30;16.92;;;-2.10;99.90;;;;;;4998558;28;20486;-73
2022/12/10 07:58:35;;;;;;;26.10;16.45;;;-2.00;99.90;;;;;;4991758;28;20054;-75
2022/12/10 08:01:08;;;;;;;29.02;16.67;;;-2.10;99.90;;;;;;4997666;28;20050;-73
2022/12/10 08:03:36;;;;;;;25.00;15.25;;;-2.10;99.90;;;;;;5000897;28;20582;-74
2022/12/10 08:06:04;;;;;;;24.23;15.25;;;-2.00;99.90;;;;;;4987804;28;20184;-75
2022/12/10 08:08:31;;;;;;;27.85;16.83;;;-2.00;99.90;;;;;;4998298;28;20094;-75
2022/12/10 08:11:00;;;;;;;26.38;15.68;;;-2.00;99.90;;;;;;4989343;28;20137;-75
2022/12/10 08:13:30;;;;;;;30.58;17.17;;;-2.00;99.90;;;;;;4991385;28;20588;-74
2022/12/10 08:16:03;;;;;;;34.70;16.05;;;-2.00;99.90;;;;;;5003149;28;20137;-75
2022/12/10 08:18:31;;;;;;;26.25;15.05;;;-2.00;99.90;;;;;;4999172;28;20286;-74
2022/12/10 08:20:58;;;;;;;29.90;15.55;;;-2.00;99.90;;;;;;4976809;28;20460;-74
2022/12/10 08:23:26;;;;;;;26.33;16.02;;;-2.20;99.90;;;;;;4990049;28;20062;-75
2022/12/10 08:25:53;;;;;;;28.00;16.23;;;-2.20;99.90;;;;;;4989577;28;20042;-75
2022/12/10 08:28:21;;;;;;;28.00;15.80;;;-2.10;99.90;;;;;;4992626;28;20606;-78
2022/12/10 08:30:50;;;;;;;30.98;15.93;;;-2.00;99.90;;;;;;4989155;28;20479;-77
2022/12/10 08:33:18;;;;;;;28.08;14.73;;;-2.10;99.90;;;;;;4991475;28;20050;-75
2022/12/10 08:35:45;;;;;;;31.17;15.95;;;-2.20;99.90;;;;;;4989307;28;20034;-76
2022/12/10 08:38:13;;;;;;;28.95;15.23;;;-2.10;99.90;;;;;;4994979;28;20045;-74
2022/12/10 08:40:41;;;;;;;30.73;15.90;;;-2.10;99.90;;;;;;5007937;28;20042;-75
2022/12/10 08:43:09;;;;;;;26.08;15.77;;;-2.10;99.90;;;;;;4982657;28;20047;-76
2022/12/10 08:45:37;;;;;;;32.67;16.70;;;-2.20;99.90;;;;;;4989316;28;20161;-75
2022/12/10 08:48:06;;;;;;;26.27;14.77;;;-2.10;99.90;;;;;;4990783;28;20447;-76
2022/12/10 08:50:34;;;;;;;32.03;16.92;;;-2.10;99.90;;;;;;4992002;28;20042;-77
2022/12/10 08:53:01;;;;;;;33.08;17.35;;;-2.00;99.90;;;;;;4990624;28;20145;-78
2022/12/10 08:55:29;;;;;;;29.77;16.50;;;-2.00;99.90;;;;;;4992667;28;20046;-76
2022/12/10 08:57:57;;;;;;;34.25;18.08;;;-2.00;99.90;;;;;;4992586;28;20060;-75
2022/12/10 09:00:25;;;;;;;28.45;17.08;;;-2.00;99.90;;;;;;4991721;28;20132;-77
2022/12/10 09:02:53;;;;;;;32.25;17.23;;;-1.90;99.90;;;;;;4991669;28;20060;-76
2022/12/10 09:05:22;;;;;;;28.17;15.93;;;-1.90;99.90;;;;;;4991349;28;20108;-75
2022/12/10 09:07:49;;;;;;;25.90;15.40;;;-1.90;99.90;;;;;;4990601;28;20124;-72
2022/12/10 09:10:17;;;;;;;29.60;15.95;;;-1.90;99.90;;;;;;4991542;28;20079;-72
2022/12/10 09:12:45;;;;;;;30.58;15.70;;;-2.00;99.90;;;;;;4992511;28;20050;-72
2022/12/10 09:15:13;;;;;;;34.38;17.38;;;-2.00;99.90;;;;;;4994019;28;20074;-72
2022/12/10 09:17:40;;;;;;;29.25;16.00;;;-2.00;99.90;;;;;;4989558;28;21186;-72
2022/12/10 09:20:08;;;;;;;28.55;16.88;;;-2.00;99.90;;;;;;4983798;28;20061;-70
2022/12/10 09:22:38;;;;;;;29.80;16.90;;;-2.00;99.90;;;;;;4992503;28;20514;-71
2022/12/10 09:25:09;;;;;;;31.13;17.05;;;-1.90;99.90;;;;;;4993883;28;20089;-72
2022/12/10 09:27:37;;;;;;;31.73;17.13;;;-1.90;99.90;;;;;;4987035;28;20050;-70
2022/12/10 09:30:07;;;;;;;34.72;18.65;;;-1.90;99.90;;;;;;4977113;28;20104;-72
2022/12/10 09:32:34;;;;;;;33.58;17.85;;;-1.90;99.90;;;;;;4991912;28;20054;-73
2022/12/10 09:35:02;;;;;;;35.20;17.45;;;-2.00;99.90;;;;;;4993264;28;20046;-72
2022/12/10 09:37:31;;;;;;;46.05;20.55;;;-2.00;99.90;;;;;;4992867;28;20059;-74
2022/12/10 09:39:59;;;;;;;29.75;16.65;;;-2.10;99.90;;;;;;4992988;28;20149;-76
2022/12/10 09:42:45;;;;;;;28.23;16.05;;;-2.00;99.90;;;;;;4993244;28;20054;-72
2022/12/10 09:45:22;;;;;;;27.13;15.18;;;-2.00;99.90;;;;;;4979811;28;20133;-71
2022/12/10 09:47:59;;;;;;;27.33;16.27;;;-2.00;99.90;;;;;;4972713;28;20053;-72
2022/12/10 09:50:33;;;;;;;32.05;15.48;;;-1.90;99.90;;;;;;4977469;28;20058;-72
2022/12/10 09:53:02;;;;;;;22.77;13.48;;;-1.90;99.90;;;;;;4993064;28;20065;-72
2022/12/10 09:55:36;;;;;;;29.25;16.08;;;-1.90;99.90;;;;;;5000480;28;20568;-72
2022/12/10 09:58:07;;;;;;;24.15;14.85;;;-1.90;99.90;;;;;;4974777;28;20049;-72
2022/12/10 10:00:39;;;;;;;23.13;14.52;;;-1.90;99.90;;;;;;5006086;28;20486;-71
2022/12/10 10:03:07;;;;;;;23.40;14.73;;;-1.80;99.90;;;;;;5001486;28;20053;-70
2022/12/10 10:05:39;;;;;;;21.38;14.82;;;-1.80;99.90;;;;;;4990800;28;20054;-71
2022/12/10 10:08:14;;;;;;;20.70;13.48;;;-1.80;99.90;;;;;;4987741;28;20132;-71
2022/12/10 10:10:43;;;;;;;17.77;12.45;;;-1.80;99.90;;;;;;4988016;28;20388;-70
2022/12/10 10:13:22;;;;;;;23.73;14.15;;;-1.80;99.90;;;;;;4989491;28;21153;-73
2022/12/10 10:15:52;;;;;;;26.27;15.80;;;-1.70;99.90;;;;;;4988623;28;20062;-73
2022/12/10 10:18:34;;;;;;;25.65;13.40;;;-1.70;99.90;;;;;;4985397;28;20058;-72
2022/12/10 10:21:03;;;;;;;19.85;11.95;;;-1.80;99.90;;;;;;4987630;28;20462;-76
2022/12/10 10:23:30;;;;;;;55.08;12.38;;;-1.80;99.90;;;;;;4989094;28;20044;-76
2022/12/10 10:25:59;;;;;;;26.65;11.70;;;-1.90;99.90;;;;;;5002891;28;20050;-75
2022/12/10 10:28:29;;;;;;;60.90;12.00;;;-1.90;99.90;;;;;;4987496;28;20048;-77
2022/12/10 10:31:34;;;;;;;30.33;11.52;;;-1.90;99.90;;;;;;4987043;28;20054;-75
2022/12/10 10:34:18;;;;;;;21.02;11.25;;;-2.10;99.90;;;;;;4983661;28;20622;-70
2022/12/10 10:36:47;;;;;;;15.50;10.50;;;-2.20;99.90;;;;;;4987930;28;20046;-72
2022/12/10 10:39:28;;;;;;;20.25;11.40;;;-2.20;99.90;;;;;;4986197;28;20080;-73
2022/12/10 10:42:01;;;;;;;20.05;11.95;;;-2.20;99.90;;;;;;4987449;28;20415;-71
2022/12/10 10:44:34;;;;;;;;;;;-2.20;99.90;;;;;;4987550;28;20399;-70
2022/12/10 10:47:03;;;;;;;14.88;9.80;;;-2.10;99.90;;;;;;4986430;28;19932;-73
2022/12/10 10:49:33;;;;;;;14.73;9.82;;;-2.10;99.90;;;;;;4986815;28;20498;-76
2022/12/10 10:52:16;;;;;;;14.52;9.15;;;-2.10;99.90;;;;;;4987090;28;20046;-77
2022/12/10 10:54:46;;;;;;;21.70;9.85;;;-2.10;99.90;;;;;;5001624;28;20054;-75
2022/12/10 10:57:23;;;;;;;13.40;8.80;;;-2.00;99.90;;;;;;4985297;28;20054;-75
2022/12/10 10:59:53;;;;;;;16.70;10.35;;;-2.00;99.90;;;;;;4986275;28;20133;-76
2022/12/10 11:02:26;;;;;;;20.85;10.02;;;-2.10;99.90;;;;;;4969397;28;20050;-77
2022/12/10 11:04:58;;;;;;;38.42;9.07;;;-2.00;99.90;;;;;;5001735;28;20058;-74
2022/12/10 11:07:34;;;;;;;12.73;9.07;;;-2.10;99.90;;;;;;4984098;28;20058;-76
2022/12/10 11:10:03;;;;;;;14.45;9.15;;;-2.30;99.90;;;;;;4985758;28;20056;-74
2022/12/10 11:12:37;;;;;;;12.07;8.20;;;-2.40;99.90;;;;;;4987232;28;20690;-75
2022/12/10 11:15:33;;;;;;;15.27;9.32;;;-2.30;99.90;;;;;;4982948;28;20077;-73
2022/12/10 11:18:02;;;;;;;13.30;8.90;;;-2.30;99.90;;;;;;4987167;28;20054;-76
2022/12/10 11:20:33;;;;;;;19.48;9.43;;;-2.30;99.90;;;;;;4985940;28;20150;-77
2022/12/10 11:23:03;;;;;;;19.70;10.48;;;-2.40;99.90;;;;;;4988482;28;20054;-77
2022/12/10 11:25:45;;;;;;;20.88;11.82;;;-2.40;99.90;;;;;;4992667;28;20057;-76
2022/12/10 11:28:33;;;;;;;18.35;10.90;;;-2.40;99.90;;;;;;4987469;28;20066;-74
2022/12/10 11:31:30;;;;;;;20.48;11.00;;;-2.40;99.90;;;;;;4984867;28;20056;-75
2022/12/10 11:34:09;;;;;;;19.23;11.30;;;-2.40;99.90;;;;;;4988109;28;20042;-72
2022/12/10 11:36:42;;;;;;;21.25;11.77;;;-2.40;99.90;;;;;;4986949;28;20064;-72
2022/12/10 11:39:27;;;;;;;23.45;12.02;;;-2.40;99.90;;;;;;5002785;28;20053;-71
2022/12/10 11:42:04;;;;;;;25.85;12.68;;;-2.30;99.90;;;;;;4995535;28;20058;-69
2022/12/10 11:44:42;;;;;;;21.20;11.60;;;-2.30;99.90;;;;;;4987268;28;20054;-70
2022/12/10 11:47:41;;;;;;;23.40;12.57;;;-2.30;99.90;;;;;;5002856;28;20149;-69
2022/12/10 11:50:24;;;;;;;24.30;12.30;;;-2.30;99.90;;;;;;4981252;28;20096;-71
2022/12/10 11:53:14;;;;;;;22.67;14.02;;;-2.30;99.90;;;;;;4987051;28;20062;-70
2022/12/10 11:55:55;;;;;;;27.00;13.07;;;-2.30;99.90;;;;;;4986933;28;20598;-71
2022/12/10 11:58:44;;;;;;;23.52;13.10;;;-2.20;99.90;;;;;;4985401;28;20062;-71
2022/12/10 12:01:22;;;;;;;22.50;13.35;;;-2.20;99.90;;;;;;4998564;28;20037;-70
2022/12/10 12:04:32;;;;;;;22.10;14.00;;;-2.20;99.90;;;;;;4985832;28;20055;-71
2022/12/10 12:07:17;;;;;;;25.58;13.43;;;-2.30;99.90;;;;;;4983336;28;20078;-70
2022/12/10 12:09:59;;;;;;;24.17;14.00;;;-2.30;99.90;;;;;;4980240;28;20065;-71
2022/12/10 12:12:40;;;;;;;24.45;14.05;;;-2.30;99.90;;;;;;4987835;28;20077;-71
2022/12/10 12:15:18;;;;;;;21.67;14.10;;;-2.30;99.90;;;;;;4971384;28;20074;-71
2022/12/10 12:17:54;;;;;;;24.63;14.35;;;-2.30;99.90;;;;;;4988200;28;20573;-71
2022/12/10 12:20:28;;;;;;;27.17;15.27;;;-2.20;99.90;;;;;;4989913;28;20104;-70
2022/12/10 12:23:01;;;;;;;27.90;16.25;;;-2.10;99.90;;;;;;4983935;28;20050;-71
2022/12/10 12:25:34;;;;;;;25.05;13.70;;;-2.10;99.90;;;;;;4972422;28;20059;-72
2022/12/10 12:28:09;;;;;;;21.50;11.60;;;-2.00;99.90;;;;;;4981953;28;20093;-71
2022/12/10 12:30:38;;;;;;;19.02;11.70;;;-2.00;99.90;;;;;;4980594;28;20109;-71
2022/12/10 12:33:13;;;;;;;19.35;12.23;;;-2.00;99.90;;;;;;4993557;28;20638;-70
2022/12/10 12:35:44;;;;;;;14.50;10.27;;;-2.00;99.90;;;;;;4991904;28;20054;-70
2022/12/10 12:38:28;;;;;;;18.30;10.43;;;-2.10;99.90;;;;;;4980230;28;20133;-71
2022/12/10 12:41:04;;;;;;;15.65;10.85;;;-2.10;99.90;;;;;;4989277;28;20957;-73
2022/12/10 12:43:45;;;;;;;18.08;10.30;;;-2.10;99.90;;;;;;4977936;28;20186;-70
2022/12/10 12:46:20;;;;;;;14.85;10.18;;;-2.20;99.90;;;;;;4985075;28;20077;-71
2022/12/10 12:48:57;;;;;;;12.57;9.43;;;-2.20;99.90;;;;;;4979923;28;20043;-71
2022/12/10 12:51:33;;;;;;;18.50;10.73;;;-2.20;99.90;;;;;;4982975;28;20050;-72
2022/12/10 12:54:00;;;;;;;15.95;9.30;;;-2.20;99.90;;;;;;4984351;28;20055;-70
2022/12/10 12:56:52;;;;;;;14.57;9.70;;;-2.20;99.90;;;;;;4989049;28;20066;-77
2022/12/10 12:59:41;;;;;;;12.77;8.43;;;-2.40;99.90;;;;;;4981814;28;20078;-75
2022/12/10 13:02:24;;;;;;;15.93;10.63;;;-2.40;99.90;;;;;;4987499;28;20054;-77